Time;durP1;ratioP1;P1;durP2;ratioP2;P2;SDS_P1;SDS_P2;PMS_P1;PMS_P2;Temp;Humidity;BMP_temperature;BMP_pressure;BME280_temperature;BME280_humidity;BME280_pressure;Samples;Min_cycle;Max_cycle;Signal;HPM_P1;HPM_P2
2022/02/24 00:01:28;;;;;;;31.30;16.00;;;;;;;4.07;64.12;99745.55;25108;1315;3026690;-66
2022/02/24 00:03:57;;;;;;;27.70;15.50;;;;;;;4.05;64.09;99746.46;25067;1316;3026896;-67
2022/02/24 00:06:26;;;;;;;47.00;16.20;;;;;;;4.06;64.03;99749.38;25105;1316;3051022;-64
2022/02/24 00:08:55;;;;;;;37.20;16.40;;;;;;;4.04;64.05;99749.08;25031;1316;3026302;-69
2022/02/24 00:11:24;;;;;;;35.50;15.90;;;;;;;4.03;64.14;99753.27;25054;1315;3051930;-72
2022/02/24 00:13:53;;;;;;;30.30;14.20;;;;;;;4.00;64.38;99753.88;24995;1315;3028766;-67
2022/02/24 00:16:22;;;;;;;32.00;15.80;;;;;;;3.98;64.38;99757.05;25094;1315;3048881;-70
2022/02/24 00:18:51;;;;;;;39.30;16.10;;;;;;;3.98;64.53;99761.41;25016;1315;3028344;-69
2022/02/24 00:22:21;;;;;;;37.20;16.70;;;;;;;4.11;64.09;99762.25;31548;1317;3026358;-65
2022/02/24 00:24:50;;;;;;;49.10;22.00;;;;;;;4.37;63.18;99758.88;24989;1318;3029556;-71
2022/02/24 00:27:19;;;;;;;39.60;17.90;;;;;;;4.61;62.36;99760.05;24970;1318;3026855;-64
2022/02/24 00:29:48;;;;;;;38.30;17.50;;;;;;;4.47;62.65;99760.81;24998;1318;3048921;-66
2022/02/24 00:32:17;;;;;;;32.30;15.60;;;;;;;4.36;62.74;99760.62;25004;1319;3026816;-73
2022/02/24 00:34:46;;;;;;;29.40;14.20;;;;;;;4.34;62.82;99759.66;24789;1316;3071893;-62
2022/02/24 00:37:15;;;;;;;29.00;15.20;;;;;;;4.25;62.82;99754.54;25082;1315;3026856;-68
2022/02/24 00:39:46;;;;;;;34.80;14.50;;;;;;;4.18;62.93;99753.70;25147;1315;3049415;-68
2022/02/24 00:42:15;;;;;;;29.80;15.30;;;;;;;4.10;63.25;99753.59;24989;1315;3029134;-67
2022/02/24 00:44:44;;;;;;;32.90;15.70;;;;;;;4.09;63.32;99753.80;25071;1315;3055077;-73
2022/02/24 00:47:13;;;;;;;38.60;16.50;;;;;;;4.08;63.34;99757.83;25121;1315;3026403;-57
2022/02/24 00:49:42;;;;;;;35.00;18.20;;;;;;;4.09;63.29;99754.84;25263;1315;3047609;-64
2022/02/24 00:52:11;;;;;;;49.30;19.50;;;;;;;4.07;63.20;99756.30;25059;1315;3028949;-67
2022/02/24 00:54:49;;;;;;;34.30;16.40;;;;;;;4.03;63.29;99760.73;25052;1315;3059317;-68
2022/02/24 00:57:19;;;;;;;37.30;17.30;;;;;;;4.01;63.43;99764.60;25066;1312;3026592;-75
2022/02/24 00:59:49;;;;;;;34.10;17.70;;;;;;;4.03;63.26;99762.13;25102;1313;3026787;-72
2022/02/24 01:02:19;;;;;;;36.50;17.90;;;;;;;4.03;63.22;99761.27;25072;1313;3055852;-64
2022/02/24 01:04:48;;;;;;;35.90;17.80;;;;;;;3.99;63.43;99766.39;25101;1313;3026277;-67
2022/02/24 01:07:16;;;;;;;34.90;18.80;;;;;;;4.00;63.40;99767.42;25061;1313;3051741;-69
2022/02/24 01:09:45;;;;;;;37.10;18.30;;;;;;;3.97;63.54;99766.61;25064;1313;3027759;-66
2022/02/24 01:12:14;;;;;;;42.90;19.40;;;;;;;3.94;63.68;99766.52;25081;1313;3052693;-72
2022/02/24 01:14:43;;;;;;;37.90;19.40;;;;;;;3.93;63.92;99768.48;25069;1313;3026975;-68
2022/02/24 01:17:17;;;;;;;34.90;19.50;;;;;;;3.93;63.84;99766.59;25148;1313;3049029;-65
2022/02/24 01:19:46;;;;;;;40.00;20.00;;;;;;;3.90;64.12;99764.39;25092;1313;3026692;-68
2022/02/24 01:22:16;;;;;;;36.70;19.30;;;;;;;3.85;64.11;99763.50;25056;1313;3028806;-63
2022/02/24 01:24:46;;;;;;;42.60;20.30;;;;;;;3.80;64.31;99767.44;25078;1313;3027247;-69
2022/02/24 01:27:14;;;;;;;44.80;20.00;;;;;;;3.75;64.59;99768.11;25065;1313;3026767;-64
2022/02/24 01:29:43;;;;;;;40.00;21.50;;;;;;;3.74;64.62;99768.66;25052;1313;3054097;-67
2022/02/24 01:32:12;;;;;;;51.90;22.20;;;;;;;3.75;64.87;99769.84;25067;1313;3027121;-67
2022/02/24 01:34:41;;;;;;;48.70;22.20;;;;;;;3.69;65.07;99771.04;25028;1313;3054409;-64
2022/02/24 01:37:10;;;;;;;48.60;22.40;;;;;;;3.65;65.09;99767.52;25085;1313;3026798;-72
2022/02/24 01:39:40;;;;;;;40.40;22.40;;;;;;;3.62;65.03;99770.55;25058;1316;3048296;-64
2022/02/24 01:42:09;;;;;;;45.70;23.30;;;;;;;3.60;64.98;99769.40;25020;1313;3026615;-67
2022/02/24 01:44:40;;;;;;;49.30;22.90;;;;;;;3.60;65.01;99773.55;25107;1313;3069056;-68
2022/02/24 01:47:09;;;;;;;48.60;23.40;;;;;;;3.58;65.26;99773.95;25040;1313;3027517;-72
2022/02/24 01:49:39;;;;;;;48.60;23.60;;;;;;;3.57;65.46;99779.52;25104;1313;3026048;-72
2022/02/24 01:52:12;;;;;;;52.80;25.10;;;;;;;3.55;65.57;99781.84;25069;1313;3028418;-63
2022/02/24 01:54:50;;;;;;;56.50;27.10;;;;;;;3.51;65.78;99785.71;25114;1313;3058508;-63
2022/02/24 01:57:19;;;;;;;53.00;27.60;;;;;;;3.46;66.18;99788.46;25018;1315;3027564;-68
2022/02/24 01:59:49;;;;;;;61.90;29.60;;;;;;;3.42;66.50;99791.50;25108;1313;3050692;-61
2022/02/24 02:02:18;;;;;;;66.90;30.70;;;;;;;3.35;66.86;99796.52;25086;1313;3026309;-71
2022/02/24 02:04:47;;;;;;;69.70;29.90;;;;;;;3.30;67.19;99793.36;25030;1313;3027271;-66
2022/02/24 02:07:16;;;;;;;68.70;31.60;;;;;;;3.29;67.04;99797.56;25102;1313;3026321;-72
2022/02/24 02:09:45;;;;;;;71.10;33.50;;;;;;;3.18;67.75;99804.40;25060;1313;3058195;-67
2022/02/24 02:12:17;;;;;;;77.30;35.00;;;;;;;3.16;67.91;99804.27;25051;1316;3026491;-71
2022/02/24 02:14:47;;;;;;;87.70;38.00;;;;;;;3.14;68.18;99810.23;25033;1313;3051233;-73
2022/02/24 02:17:15;;;;;;;75.10;36.70;;;;;;;3.16;67.46;99811.38;25092;1313;3027271;-63
2022/02/24 02:19:44;;;;;;;79.20;36.60;;;;;;;3.18;67.47;99812.56;25077;1313;3055933;-67
2022/02/24 02:22:13;;;;;;;81.90;36.20;;;;;;;3.13;67.75;99817.16;25037;1313;3026428;-64
2022/02/24 02:24:58;;;;;;;72.60;34.80;;;;;;;3.13;67.61;99820.61;25107;1315;3049015;-67
2022/02/24 02:27:26;;;;;;;75.10;35.30;;;;;;;3.03;68.36;99826.58;25108;1313;3052212;-66
2022/02/24 02:29:56;;;;;;;93.10;39.40;;;;;;;2.99;68.66;99829.79;25042;1313;3026438;-66
2022/02/24 02:32:25;;;;;;;73.80;35.90;;;;;;;2.89;68.79;99828.46;25103;1313;3048235;-74
2022/02/24 02:34:54;;;;;;;80.50;36.80;;;;;;;2.85;69.25;99831.16;25091;1313;3026440;-66
2022/02/24 02:37:23;;;;;;;82.30;37.70;;;;;;;2.81;69.34;99832.27;25012;1313;3027370;-68
2022/02/24 02:39:51;;;;;;;83.00;38.90;;;;;;;2.83;68.99;99836.39;25082;1313;3048128;-69
2022/02/24 02:42:20;;;;;;;85.50;40.30;;;;;;;2.84;68.55;99831.87;25068;1315;3026385;-74
2022/02/24 02:44:49;;;;;;;76.60;36.70;;;;;;;2.85;68.38;99833.40;25055;1313;3067726;-65
2022/02/24 02:47:18;;;;;;;80.30;37.40;;;;;;;2.83;68.51;99835.01;25074;1313;3026286;-69
2022/02/24 02:49:47;;;;;;;80.10;37.70;;;;;;;2.77;68.80;99834.45;25046;1313;3048749;-69
2022/02/24 02:52:16;;;;;;;83.20;37.40;;;;;;;2.76;68.72;99835.69;25076;1312;3026243;-66
2022/02/24 02:54:46;;;;;;;76.60;35.80;;;;;;;2.72;68.99;99836.98;25040;1313;3054644;-69
2022/02/24 02:57:15;;;;;;;71.50;30.70;;;;;;;2.74;69.15;99840.59;25075;1315;3026669;-71
2022/02/24 02:59:44;;;;;;;61.90;28.80;;;;;;;3.28;68.07;99841.56;25061;1313;3026406;-68
2022/02/24 07:02:15;;;;;;;30.20;14.60;;;;;;;5.19;55.58;100041.41;25319;1316;3051396;-70
2022/02/24 07:04:44;;;;;;;29.40;15.30;;;;;;;5.27;55.08;100042.91;25180;1316;3027350;-69
2022/02/24 07:07:13;;;;;;;29.70;14.50;;;;;;;5.29;54.75;100044.41;25026;1313;3026504;-72
2022/02/24 07:09:42;;;;;;;29.90;14.70;;;;;;;5.49;54.68;100042.26;25110;1315;3026212;-67
2022/02/24 07:12:11;;;;;;;32.80;14.40;;;;;;;5.64;53.09;100043.55;25007;1315;3070618;-70
2022/02/24 07:14:40;;;;;;;32.20;13.70;;;;;;;5.74;52.18;100041.84;25089;1313;3026692;-66
2022/02/24 07:17:09;;;;;;;32.70;13.40;;;;;;;5.84;52.75;100040.13;25055;1313;3053883;-69
2022/02/24 07:19:38;;;;;;;25.00;13.00;;;;;;;5.99;52.46;100045.08;25081;1313;3026570;-75
2022/02/24 07:22:08;;;;;;;26.70;13.80;;;;;;;6.08;51.27;100045.84;25095;1313;3055806;-66
2022/02/24 07:24:37;;;;;;;35.50;15.60;;;;;;;6.03;50.06;100047.55;25055;1313;3026891;-70
2022/02/24 07:27:06;;;;;;;33.80;14.80;;;;;;;6.04;50.50;100051.17;25102;1313;3050133;-67
2022/02/24 07:29:35;;;;;;;36.10;15.40;;;;;;;6.13;50.47;100051.92;25060;1313;3026743;-71
2022/02/24 07:32:04;;;;;;;39.70;15.50;;;;;;;6.15;49.91;100050.65;25089;1313;3056208;-66
2022/02/24 07:34:33;;;;;;;33.00;14.80;;;;;;;6.34;50.54;100054.02;25050;1313;3027254;-70
2022/02/24 07:37:03;;;;;;;34.40;16.20;;;;;;;6.45;49.97;100059.73;25085;1313;3028696;-65
2022/02/24 07:39:32;;;;;;;38.60;16.40;;;;;;;6.15;49.62;100063.86;25098;1313;3059030;-74
2022/02/24 07:42:00;;;;;;;38.20;15.40;;;;;;;6.22;49.60;100062.60;25088;1313;3026905;-70
2022/02/24 07:44:31;;;;;;;32.40;16.50;;;;;;;6.36;50.38;100068.56;25075;1315;3051270;-65
2022/02/24 07:46:59;;;;;;;36.40;16.60;;;;;;;6.56;49.48;100071.19;25045;1316;3028065;-73
2022/02/24 07:49:28;;;;;;;38.40;17.10;;;;;;;6.39;48.78;100067.77;25108;1316;3051431;-74
2022/02/24 07:51:58;;;;;;;41.70;17.30;;;;;;;6.31;49.61;100072.05;25101;1316;3027217;-68
2022/02/24 07:54:27;;;;;;;43.20;18.60;;;;;;;6.53;49.77;100073.04;25059;1313;3028793;-68
2022/02/24 07:56:56;;;;;;;48.30;21.00;;;;;;;6.68;50.08;100073.39;25104;1312;3052089;-74
2022/02/24 07:59:25;;;;;;;43.00;20.70;;;;;;;6.72;48.36;100070.99;25025;1315;3026844;-68
2022/02/24 08:01:54;;;;;;;46.50;22.30;;;;;;;6.83;49.70;100074.63;25122;1316;3050476;-77
2022/02/24 08:04:23;;;;;;;53.80;23.40;;;;;;;6.71;48.97;100071.54;25050;1316;3026304;-67
2022/02/24 08:06:52;;;;;;;53.90;23.90;;;;;;;6.69;49.06;100073.36;25093;1313;3070978;-73
2022/02/24 08:09:22;;;;;;;49.10;22.40;;;;;;;6.43;49.60;100067.11;25083;1313;3026430;-72
2022/02/24 08:14:38;;;;;;;44.70;22.10;;;;;;;6.82;48.81;100076.74;25068;1315;3068544;-75
2022/02/24 08:17:08;;;;;;;59.40;25.20;;;;;;;7.01;49.30;100080.77;25083;1313;3027638;-67
2022/02/24 08:19:37;;;;;;;52.50;23.70;;;;;;;7.08;49.36;100084.35;25069;1313;3026460;-70
2022/02/24 08:22:05;;;;;;;58.00;23.70;;;;;;;7.12;49.10;100082.78;25046;1313;3070264;-70
2022/02/24 08:24:35;;;;;;;58.40;22.50;;;;;;;6.91;48.72;100077.10;25097;1313;3026635;-69
2022/02/24 08:27:04;;;;;;;49.40;22.80;;;;;;;7.04;48.79;100076.48;25064;1313;3050688;-68
2022/02/24 08:29:33;;;;;;;47.50;21.00;;;;;;;7.12;48.77;100078.61;25031;1315;3029924;-64
2022/02/24 08:32:04;;;;;;;39.90;18.30;;;;;;;7.16;47.83;100081.25;25037;1314;3055665;-69
2022/02/24 08:34:34;;;;;;;39.30;17.70;;;;;;;7.25;48.23;100081.27;25074;1315;3027048;-69
2022/02/24 08:37:04;;;;;;;43.40;17.10;;;;;;;7.32;47.80;100080.52;25009;1315;3027036;-62
2022/02/24 08:39:34;;;;;;;40.90;18.20;;;;;;;7.31;47.84;100079.50;25122;1315;3052830;-68
2022/02/24 08:42:03;;;;;;;38.30;17.10;;;;;;;7.14;48.03;100078.91;25069;1313;3027551;-72
2022/02/24 08:44:32;;;;;;;37.10;15.60;;;;;;;7.12;47.47;100081.08;25068;1313;3049263;-68
2022/02/24 08:47:02;;;;;;;35.50;15.70;;;;;;;7.04;48.08;100076.48;25102;1315;3026813;-69
2022/02/24 08:49:32;;;;;;;30.30;13.90;;;;;;;7.02;47.84;100079.34;25027;1315;3027003;-62
2022/02/24 08:52:01;;;;;;;24.40;13.30;;;;;;;6.90;47.15;100085.33;25073;1313;3027310;-75
2022/02/24 08:54:31;;;;;;;23.40;11.90;;;;;;;6.90;46.58;100084.80;25098;1315;3026153;-70
2022/02/24 08:57:00;;;;;;;27.60;12.50;;;;;;;7.05;47.08;100079.73;25082;1315;3050438;-70
2022/02/24 08:59:29;;;;;;;23.10;12.20;;;;;;;7.28;46.82;100078.75;25068;1315;3026987;-67
2022/02/24 09:01:58;;;;;;;27.20;11.30;;;;;;;7.40;46.74;100073.73;25105;1313;3053202;-67
2022/02/24 09:04:27;;;;;;;14.70;9.20;;;;;;;7.41;46.05;100073.17;25007;1315;3026746;-71
2022/02/24 09:06:56;;;;;;;27.20;10.20;;;;;;;7.19;45.06;100080.13;25084;1314;3048675;-62
2022/02/24 09:09:25;;;;;;;22.20;8.90;;;;;;;7.27;45.38;100080.88;25078;1313;3026634;-63
2022/02/24 09:11:54;;;;;;;19.70;7.70;;;;;;;7.28;43.80;100081.15;25086;1315;3055758;-69
2022/02/24 09:14:23;;;;;;;17.30;7.70;;;;;;;7.16;41.83;100082.13;25018;1313;3026924;-71
2022/02/24 09:17:12;;;;;;;17.50;7.70;;;;;;;7.42;42.08;100083.09;25099;1315;3054468;-71
2022/02/24 09:19:43;;;;;;;18.80;8.20;;;;;;;7.77;41.83;100079.31;25030;1315;3026463;-71
2022/02/24 09:22:13;;;;;;;12.80;6.70;;;;;;;8.04;41.07;100073.58;25103;1315;3052726;-70
2022/02/24 09:24:42;;;;;;;19.80;8.50;;;;;;;8.01;41.15;100070.52;25078;1313;3026651;-68
2022/02/24 09:27:11;;;;;;;19.00;8.60;;;;;;;8.12;40.79;100065.52;25154;1313;3027138;-69
2022/02/24 09:29:40;;;;;;;15.90;7.70;;;;;;;8.24;39.77;100070.09;25073;1315;3026440;-63
2022/02/24 09:32:09;;;;;;;12.90;7.10;;;;;;;8.25;39.04;100072.88;25228;1313;3050868;-66
2022/02/24 09:34:38;;;;;;;19.70;7.40;;;;;;;8.35;38.15;100068.95;25134;1315;3026226;-77
2022/02/24 09:37:08;;;;;;;15.50;7.10;;;;;;;8.12;37.83;100069.71;25140;1315;3055370;-69
2022/02/24 09:39:36;;;;;;;15.40;7.80;;;;;;;7.81;38.25;100067.12;25053;1314;3026333;-65
2022/02/24 09:42:06;;;;;;;16.60;7.30;;;;;;;8.00;38.31;100067.42;25114;1313;3050080;-74
2022/02/24 09:44:36;;;;;;;17.30;7.40;;;;;;;8.04;38.39;100067.98;25240;1313;3026249;-64
2022/02/24 09:47:04;;;;;;;17.00;6.70;;;;;;;7.98;38.22;100065.92;25287;1315;3026575;-68
2022/02/24 09:49:34;;;;;;;16.70;8.60;;;;;;;8.00;38.14;100064.29;25077;1314;3050752;-66
2022/02/24 09:52:03;;;;;;;17.00;7.50;;;;;;;8.10;38.13;100064.07;25138;1315;3028832;-70
2022/02/24 09:54:32;;;;;;;20.10;7.30;;;;;;;8.13;38.12;100063.59;25299;1313;3069585;-64
2022/02/24 09:57:02;;;;;;;18.80;6.80;;;;;;;7.80;37.90;100070.84;25309;1314;3026776;-64
2022/02/24 09:59:31;;;;;;;15.00;6.80;;;;;;;7.64;38.65;100069.88;25407;1313;3051057;-63
2022/02/24 10:02:00;;;;;;;19.80;7.40;;;;;;;7.47;39.66;100068.27;25307;1313;3026801;-63
2022/02/24 10:04:29;;;;;;;15.40;7.70;;;;;;;7.57;39.73;100072.25;25061;1313;3055307;-69
2022/02/24 10:06:58;;;;;;;19.80;8.10;;;;;;;7.83;39.64;100068.61;25164;1315;3026362;-75
2022/02/24 10:09:31;;;;;;;26.20;9.10;;;;;;;7.60;40.27;100069.88;25045;1315;3048690;-66
2022/02/24 10:12:09;;;;;;;25.20;11.50;;;;;;;7.59;40.08;100070.95;25087;1313;3051995;-66
2022/02/24 10:14:38;;;;;;;14.10;8.00;;;;;;;7.44;39.88;100066.61;25085;1315;3051308;-66
2022/02/24 10:17:07;;;;;;;19.10;6.20;;;;;;;7.56;38.43;100066.70;25030;1315;3026569;-64
2022/02/24 10:19:47;;;;;;;17.50;6.70;;;;;;;7.64;37.96;100069.90;25062;1315;3026919;-68
2022/02/24 10:22:28;;;;;;;25.40;7.80;;;;;;;7.71;38.84;100064.52;25089;1315;3051821;-66
2022/02/24 10:24:58;;;;;;;23.50;9.70;;;;;;;7.78;39.80;100064.98;25087;1316;3054600;-77
2022/02/24 10:27:29;;;;;;;15.40;7.00;;;;;;;8.03;39.33;100056.30;25059;1313;3027002;-71
2022/02/24 10:30:13;;;;;;;14.90;6.90;;;;;;;8.11;39.75;100056.49;25064;1315;3026607;-66
2022/02/24 10:32:47;;;;;;;12.40;6.40;;;;;;;8.19;39.92;100056.16;25001;1314;3056003;-69
2022/02/24 10:35:24;;;;;;;23.40;6.50;;;;;;;8.06;39.65;100054.27;25094;1315;3026566;-62
2022/02/24 10:38:00;;;;;;;14.70;6.20;;;;;;;7.97;40.00;100052.34;25007;1315;3070704;-69
2022/02/24 10:40:43;;;;;;;12.50;5.90;;;;;;;8.20;39.32;100053.18;25020;1315;3048419;-64
2022/02/24 10:43:26;;;;;;;17.50;7.00;;;;;;;8.23;39.29;100054.42;25116;1313;3052571;-73
2022/02/24 10:46:13;;;;;;;18.10;6.40;;;;;;;8.43;39.53;100041.75;25073;1315;3055722;-65
2022/02/24 10:48:54;;;;;;;14.00;5.90;;;;;;;8.48;39.56;100041.21;25068;1315;3059201;-72
2022/02/24 10:51:24;;;;;;;15.40;6.70;;;;;;;8.60;40.06;100034.22;25000;1314;3049987;-68
2022/02/24 10:54:06;;;;;;;13.80;6.30;;;;;;;8.69;39.46;100036.98;25031;1315;3027070;-67
2022/02/24 10:56:44;;;;;;;15.50;6.40;;;;;;;8.38;38.28;100035.48;25059;1315;3051355;-68
2022/02/24 10:59:16;;;;;;;16.20;5.60;;;;;;;8.36;38.14;100034.17;25020;1313;3069530;-68
2022/02/24 11:01:45;;;;;;;12.70;6.10;;;;;;;8.37;37.91;100034.86;24983;1317;3026525;-63
2022/02/24 11:04:14;;;;;;;15.20;6.10;;;;;;;8.44;38.14;100033.70;25069;1313;3026660;-68
2022/02/24 11:06:43;;;;;;;16.60;5.60;;;;;;;8.58;37.87;100038.34;25002;1313;3068533;-64
2022/02/24 11:09:12;;;;;;;15.40;6.10;;;;;;;8.61;37.73;100038.59;25043;1316;3026585;-70
2022/02/24 11:11:41;;;;;;;13.70;6.20;;;;;;;8.73;37.80;100034.73;24935;1316;3050960;-64
2022/02/24 11:14:10;;;;;;;16.60;6.40;;;;;;;8.54;38.23;100037.11;25014;1318;3026796;-69
2022/02/24 11:16:39;;;;;;;10.60;6.00;;;;;;;8.78;38.63;100037.49;25001;1315;3055359;-63
2022/02/24 11:19:09;;;;;;;9.50;5.40;;;;;;;8.96;38.52;100043.83;24939;1317;3028361;-65
2022/02/24 11:21:50;;;;;;;18.40;6.50;;;;;;;9.18;37.51;100038.11;25092;1313;3069110;-62
2022/02/24 11:24:19;;;;;;;13.20;6.00;;;;;;;9.42;37.38;100036.17;25065;1313;3026487;-68
2022/02/24 11:27:02;;;;;;;9.10;5.70;;;;;;;9.16;37.53;100035.60;25066;1315;3054460;-74
2022/02/24 11:29:34;;;;;;;12.90;5.80;;;;;;;8.77;38.20;100031.41;25072;1315;3069669;-67
2022/02/24 11:32:09;;;;;;;13.10;6.50;;;;;;;9.03;38.08;100026.40;25034;1315;3026285;-62
2022/02/24 11:34:57;;;;;;;14.30;7.00;;;;;;;8.81;37.43;100019.87;25064;1315;3051759;-69
2022/02/24 11:37:38;;;;;;;12.80;6.10;;;;;;;8.95;37.52;100015.05;25077;1315;3055016;-64
2022/02/24 11:40:26;;;;;;;12.60;5.70;;;;;;;9.13;36.46;100013.56;25073;1315;3056408;-65
2022/02/24 11:43:19;;;;;;;10.40;5.30;;;;;;;9.20;36.11;100012.02;25033;1313;3050047;-65
2022/02/24 11:45:49;;;;;;;11.20;4.90;;;;;;;9.28;35.66;100010.05;25142;1314;3055990;-65
2022/02/24 11:48:19;;;;;;;18.00;5.00;;;;;;;9.09;36.49;100016.00;25075;1313;3026558;-65
2022/02/24 11:50:55;;;;;;;21.10;5.80;;;;;;;8.87;36.96;100023.80;25072;1314;3028049;-67
2022/02/24 11:53:27;;;;;;;13.50;5.50;;;;;;;9.11;36.97;100029.73;25090;1315;3049069;-70
2022/02/24 11:56:00;;;;;;;10.80;5.00;;;;;;;9.22;36.33;100029.38;25116;1314;3026838;-68
2022/02/24 11:58:36;;;;;;;12.20;5.40;;;;;;;9.26;36.15;100023.09;25062;1315;3027596;-64
2022/02/24 12:01:34;;;;;;;18.50;5.10;;;;;;;9.38;35.67;100025.16;25043;1315;3058729;-64
2022/02/24 12:04:25;;;;;;;11.60;4.50;;;;;;;9.52;34.60;100028.88;25051;1315;3052567;-66
2022/02/24 12:07:18;;;;;;;11.30;4.70;;;;;;;9.40;34.94;100025.25;25046;1315;3055240;-68
2022/02/24 12:10:10;;;;;;;14.40;6.00;;;;;;;9.40;35.73;100025.44;25011;1318;3051479;-65
2022/02/24 12:12:39;;;;;;;16.90;5.30;;;;;;;9.35;36.24;100025.83;25033;1315;3071398;-65
2022/02/24 12:15:18;;;;;;;8.90;4.80;;;;;;;9.51;36.49;100025.63;25061;1315;3026509;-64
2022/02/24 12:17:49;;;;;;;14.30;4.70;;;;;;;9.60;36.05;100028.52;25075;1315;3053712;-61
2022/02/24 12:20:26;;;;;;;11.40;4.60;;;;;;;9.73;35.48;100019.80;25101;1315;3026317;-67
2022/02/24 12:22:55;;;;;;;9.50;4.30;;;;;;;9.46;34.64;100024.44;25038;1315;3047643;-72
2022/02/24 12:25:25;;;;;;;9.00;4.00;;;;;;;9.67;34.18;100018.54;25000;1315;3026863;-70
2022/02/24 12:28:07;;;;;;;7.80;4.50;;;;;;;9.70;34.16;100024.33;25089;1315;3068662;-69
2022/02/24 12:30:45;;;;;;;15.70;5.50;;;;;;;9.61;35.21;100026.88;25031;1314;3051651;-70
2022/02/24 12:33:18;;;;;;;11.10;5.20;;;;;;;9.65;35.92;100029.80;25089;1315;3052916;-64
2022/02/24 12:35:52;;;;;;;8.50;5.40;;;;;;;9.95;35.86;100032.41;23652;1315;8574617;-65
2022/02/24 12:38:22;;;;;;;12.30;6.80;;;;;;;10.02;35.66;100028.91;25013;1315;3048135;-70
2022/02/24 12:40:53;;;;;;;11.80;5.70;;;;;;;9.97;35.76;100032.14;25055;1320;3027305;-70
2022/02/24 12:43:24;;;;;;;7.90;5.20;;;;;;;10.05;35.56;100028.61;25203;1315;3026803;-63
2022/02/24 12:45:54;;;;;;;12.90;5.00;;;;;;;10.02;35.52;100023.31;25178;1319;3026593;-69
2022/02/24 12:48:23;;;;;;;12.20;4.60;;;;;;;10.06;35.35;100026.98;25078;1318;3026571;-70
2022/02/24 12:50:53;;;;;;;12.70;5.40;;;;;;;10.23;34.69;100024.25;25106;1318;3026628;-66
2022/02/24 12:53:27;;;;;;;13.00;4.70;;;;;;;10.44;34.35;100025.63;25087;1315;3026343;-72
2022/02/24 12:55:57;;;;;;;13.10;5.00;;;;;;;10.26;34.33;100024.75;25086;1315;3071618;-61
2022/02/24 12:58:28;;;;;;;11.90;5.00;;;;;;;10.52;34.84;100026.47;25279;1315;3026841;-64
2022/02/24 13:00:58;;;;;;;12.60;4.40;;;;;;;10.49;34.64;100018.19;25156;1318;3027571;-64
2022/02/24 13:03:28;;;;;;;7.70;4.30;;;;;;;10.89;34.18;100021.02;25077;1315;3027435;-66
2022/02/24 13:06:00;;;;;;;11.60;4.30;;;;;;;10.90;33.41;100025.37;25047;1315;3026323;-61
2022/02/24 13:11:20;;;;;;;14.10;4.60;;;;;;;10.82;33.77;100019.84;25089;1315;3051490;-73
2022/02/24 13:13:50;;;;;;;11.70;5.00;;;;;;;10.85;33.73;100018.11;25083;1315;3029353;-67
2022/02/24 13:16:20;;;;;;;13.70;5.80;;;;;;;10.75;34.01;100014.95;25039;1313;3026290;-62
2022/02/24 13:18:50;;;;;;;9.90;4.50;;;;;;;10.56;34.09;100012.92;25048;1315;3030063;-71
2022/02/24 13:21:24;;;;;;;9.10;4.30;;;;;;;10.40;34.20;100012.34;25083;1316;3026831;-69
2022/02/24 13:23:57;;;;;;;8.60;4.80;;;;;;;10.33;34.24;100019.67;25052;1315;3052359;-69
2022/02/24 13:26:34;;;;;;;9.80;4.30;;;;;;;10.21;34.59;100017.99;25113;1316;3026241;-65
2022/02/24 13:29:05;;;;;;;10.40;4.50;;;;;;;9.95;34.14;100013.85;25061;1315;3050080;-67
2022/02/24 13:31:34;;;;;;;10.50;4.20;;;;;;;9.87;34.72;100011.95;25087;1313;3026674;-69
2022/02/24 13:34:12;;;;;;;12.20;4.90;;;;;;;9.88;34.81;100011.76;25017;1316;3026536;-68
2022/02/24 13:36:41;;;;;;;9.00;4.50;;;;;;;9.91;35.13;100015.09;25056;1313;3050283;-66
2022/02/24 13:39:19;;;;;;;10.30;4.30;;;;;;;9.86;35.74;100018.32;25102;1315;3030211;-70
2022/02/24 13:41:52;;;;;;;12.30;5.30;;;;;;;9.84;35.99;100016.67;25070;1315;3056722;-66
2022/02/24 13:44:21;;;;;;;18.00;6.90;;;;;;;9.68;36.58;100017.44;25099;1312;3025823;-61
2022/02/24 13:46:50;;;;;;;16.70;6.60;;;;;;;9.58;37.01;100019.66;25077;1315;3027953;-69
2022/02/24 13:49:19;;;;;;;16.90;6.60;;;;;;;9.74;36.89;100012.98;25001;1316;3056673;-62
2022/02/24 13:51:49;;;;;;;14.60;5.40;;;;;;;9.71;36.72;100016.79;25070;1312;3026545;-72
2022/02/24 13:54:24;;;;;;;14.00;6.50;;;;;;;9.64;36.27;100012.06;25101;1315;3026366;-71
2022/02/24 13:56:53;;;;;;;11.70;5.80;;;;;;;9.58;36.54;100013.04;25100;1315;3051032;-68
2022/02/24 13:59:23;;;;;;;21.60;6.00;;;;;;;9.60;36.53;100005.24;25068;1315;3026620;-64
2022/02/24 14:01:53;;;;;;;10.70;5.30;;;;;;;9.40;37.11;99998.63;25107;1316;3026869;-63
2022/02/24 14:04:23;;;;;;;15.50;5.10;;;;;;;9.51;37.29;99996.23;25082;1313;3026637;-65
2022/02/24 14:06:53;;;;;;;14.90;4.80;;;;;;;9.35;37.85;99996.77;25083;1315;3027309;-69
2022/02/24 14:09:23;;;;;;;25.00;5.40;;;;;;;8.98;38.60;100001.48;25116;1313;3026556;-68
2022/02/24 14:11:53;;;;;;;13.10;5.30;;;;;;;8.78;39.05;100000.43;25107;1313;3028506;-63
2022/02/24 14:14:23;;;;;;;12.80;5.50;;;;;;;8.59;39.58;99997.29;25104;1313;3026950;-66
2022/02/24 14:16:52;;;;;;;17.50;5.20;;;;;;;8.72;39.39;99996.66;25085;1316;3057895;-71
2022/02/24 14:19:24;;;;;;;11.70;5.50;;;;;;;8.70;39.55;100000.09;25045;1312;3029130;-71
2022/02/24 14:21:53;;;;;;;17.40;5.00;;;;;;;8.78;39.32;100001.00;25053;1314;3052518;-73
2022/02/24 14:24:22;;;;;;;13.40;4.90;;;;;;;8.75;39.16;100002.66;25103;1315;3026829;-65
2022/02/24 14:26:52;;;;;;;14.40;5.30;;;;;;;8.68;39.24;100003.48;25098;1315;3053963;-67
2022/02/24 14:29:22;;;;;;;12.30;4.60;;;;;;;8.55;39.53;100001.63;25086;1313;3026671;-67
2022/02/24 14:31:51;;;;;;;10.30;5.20;;;;;;;8.51;39.56;100003.90;25074;1313;3048400;-66
2022/02/24 14:34:20;;;;;;;12.20;5.10;;;;;;;8.61;39.55;99999.81;25107;1315;3028739;-64
2022/02/24 14:36:49;;;;;;;14.00;4.70;;;;;;;8.65;39.52;100002.23;25086;1313;3068191;-69
2022/02/24 14:39:19;;;;;;;15.20;4.70;;;;;;;8.70;39.52;100001.83;25104;1313;3026853;-71
2022/02/24 14:41:48;;;;;;;14.60;4.50;;;;;;;8.69;39.46;100003.64;25061;1314;3053568;-65
2022/02/24 14:44:17;;;;;;;14.60;4.10;;;;;;;8.75;39.29;100003.20;25057;1315;3026383;-60
2022/02/24 14:46:46;;;;;;;16.00;4.80;;;;;;;8.72;39.38;100000.89;25105;1315;3028318;-66
2022/02/24 14:49:21;;;;;;;9.00;4.60;;;;;;;8.76;39.18;99997.75;25130;1315;3051606;-68
2022/02/24 14:51:50;;;;;;;16.20;5.40;;;;;;;8.84;39.11;99994.23;25101;1313;3027306;-69
2022/02/24 14:54:19;;;;;;;11.80;5.00;;;;;;;8.65;39.54;99997.17;25118;1313;3026610;-64
2022/02/24 14:56:48;;;;;;;15.70;4.80;;;;;;;8.68;39.51;99992.84;25112;1312;3053703;-66
2022/02/24 14:59:17;;;;;;;12.10;4.10;;;;;;;8.59;39.78;99988.52;25019;1315;3026341;-63
2022/02/24 15:01:46;;;;;;;15.90;4.10;;;;;;;8.52;40.24;99992.67;25164;1315;3052915;-71
2022/02/24 15:04:15;;;;;;;8.20;4.10;;;;;;;8.38;40.44;99993.61;25025;1315;3026629;-68
2022/02/24 15:06:44;;;;;;;13.00;3.90;;;;;;;8.21;40.69;100001.48;25062;1316;3049243;-63
2022/02/24 15:09:13;;;;;;;8.30;4.10;;;;;;;7.96;41.50;100002.52;25036;1315;3026870;-65
2022/02/24 15:11:42;;;;;;;8.10;4.60;;;;;;;7.82;42.03;100004.82;25082;1315;3026589;-68
2022/02/24 15:14:11;;;;;;;7.10;4.20;;;;;;;7.84;42.20;100005.61;25030;1315;3050507;-62
2022/02/24 15:16:40;;;;;;;7.80;4.50;;;;;;;7.79;42.45;100004.96;25082;1315;3026753;-64
2022/02/24 15:19:09;;;;;;;16.60;5.80;;;;;;;7.60;43.05;100007.96;25051;1315;3058137;-72
2022/02/24 15:21:38;;;;;;;20.50;5.20;;;;;;;7.55;43.16;100008.52;25092;1315;3027069;-63
2022/02/24 15:24:07;;;;;;;12.60;5.80;;;;;;;7.45;43.61;100014.29;25076;1315;3026405;-67
2022/02/24 15:26:36;;;;;;;13.80;5.40;;;;;;;7.37;44.11;100019.31;25089;1315;3058541;-70
2022/02/24 15:29:05;;;;;;;12.10;5.20;;;;;;;7.26;44.35;100019.23;25038;1315;3026186;-63
2022/02/24 15:31:34;;;;;;;15.30;5.40;;;;;;;7.07;45.02;100021.84;25088;1316;3056177;-67
2022/02/24 15:34:03;;;;;;;12.20;5.60;;;;;;;7.14;44.77;100021.77;25057;1315;3027900;-70